sensor_id;sensor_type;location;lat;lon;timestamp;P1;durP1;ratioP1;P2;durP2;ratioP2
23567;SDS011;11962;50.838;4.430;2022-07-25T00:02:14;5.07;;;4.38;;
23567;SDS011;11962;50.838;4.430;2022-07-25T00:04:42;4.95;;;4.25;;
23567;SDS011;11962;50.838;4.430;2022-07-25T00:07:17;6.60;;;4.50;;
23567;SDS011;11962;50.838;4.430;2022-07-25T00:23:54;5.80;;;4.80;;
23567;SDS011;11962;50.838;4.430;2022-07-25T00:26:32;7.13;;;4.53;;
23567;SDS011;11962;50.838;4.430;2022-07-25T00:28:58;5.68;;;4.60;;
23567;SDS011;11962;50.838;4.430;2022-07-25T00:31:33;9.20;;;4.53;;
23567;SDS011;11962;50.838;4.430;2022-07-25T00:34:06;5.22;;;4.60;;
23567;SDS011;11962;50.838;4.430;2022-07-25T00:36:48;7.35;;;4.70;;
23567;SDS011;11962;50.838;4.430;2022-07-25T00:42:15;10.07;;;5.00;;
23567;SDS011;11962;50.838;4.430;2022-07-25T00:44:54;6.30;;;4.53;;
23567;SDS011;11962;50.838;4.430;2022-07-25T00:47:36;7.45;;;4.35;;
23567;SDS011;11962;50.838;4.430;2022-07-25T00:50:19;6.53;;;4.70;;
23567;SDS011;11962;50.838;4.430;2022-07-25T00:55:48;7.43;;;4.68;;
23567;SDS011;11962;50.838;4.430;2022-07-25T00:58:14;5.35;;;4.20;;
23567;SDS011;11962;50.838;4.430;2022-07-25T01:00:51;9.00;;;4.68;;
23567;SDS011;11962;50.838;4.430;2022-07-25T01:03:38;10.38;;;4.47;;
23567;SDS011;11962;50.838;4.430;2022-07-25T01:06:10;10.07;;;4.72;;
23567;SDS011;11962;50.838;4.430;2022-07-25T01:09:04;10.98;;;5.10;;
23567;SDS011;11962;50.838;4.430;2022-07-25T01:11:43;6.53;;;5.18;;
23567;SDS011;11962;50.838;4.430;2022-07-25T01:14:09;7.55;;;4.40;;
23567;SDS011;11962;50.838;4.430;2022-07-25T01:16:34;7.97;;;4.70;;
23567;SDS011;11962;50.838;4.430;2022-07-25T01:19:15;9.18;;;4.95;;
23567;SDS011;11962;50.838;4.430;2022-07-25T01:21:50;9.68;;;4.63;;
23567;SDS011;11962;50.838;4.430;2022-07-25T01:24:34;7.47;;;4.68;;
23567;SDS011;11962;50.838;4.430;2022-07-25T01:27:02;6.78;;;4.78;;
23567;SDS011;11962;50.838;4.430;2022-07-25T01:29:57;8.35;;;4.60;;
23567;SDS011;11962;50.838;4.430;2022-07-25T01:32:49;11.73;;;4.60;;
23567;SDS011;11962;50.838;4.430;2022-07-25T01:35:20;7.22;;;4.68;;
23567;SDS011;11962;50.838;4.430;2022-07-25T01:38:27;6.75;;;4.68;;
23567;SDS011;11962;50.838;4.430;2022-07-25T01:40:53;8.40;;;4.68;;
23567;SDS011;11962;50.838;4.430;2022-07-25T01:43:37;7.30;;;4.80;;
23567;SDS011;11962;50.838;4.430;2022-07-25T01:46:03;5.43;;;4.63;;
23567;SDS011;11962;50.838;4.430;2022-07-25T01:48:33;5.68;;;4.40;;
23567;SDS011;11962;50.838;4.430;2022-07-25T01:50:59;9.98;;;5.07;;
23567;SDS011;11962;50.838;4.430;2022-07-25T01:53:35;7.45;;;4.50;;
23567;SDS011;11962;50.838;4.430;2022-07-25T01:56:10;7.25;;;4.53;;
23567;SDS011;11962;50.838;4.430;2022-07-25T01:58:40;12.25;;;5.30;;
23567;SDS011;11962;50.838;4.430;2022-07-25T02:01:11;7.55;;;4.80;;
23567;SDS011;11962;50.838;4.430;2022-07-25T02:03:53;6.88;;;4.50;;
23567;SDS011;11962;50.838;4.430;2022-07-25T02:06:37;12.93;;;5.20;;
23567;SDS011;11962;50.838;4.430;2022-07-25T02:09:06;7.28;;;4.97;;
23567;SDS011;11962;50.838;4.430;2022-07-25T02:11:54;6.32;;;4.68;;
23567;SDS011;11962;50.838;4.430;2022-07-25T02:14:30;6.90;;;4.70;;
23567;SDS011;11962;50.838;4.430;2022-07-25T02:17:00;7.88;;;4.63;;
23567;SDS011;11962;50.838;4.430;2022-07-25T02:19:31;5.95;;;4.72;;
23567;SDS011;11962;50.838;4.430;2022-07-25T02:22:11;8.60;;;4.97;;
23567;SDS011;11962;50.838;4.430;2022-07-25T02:25:03;7.13;;;4.55;;
23567;SDS011;11962;50.838;4.430;2022-07-25T02:27:37;7.97;;;4.97;;
23567;SDS011;11962;50.838;4.430;2022-07-25T02:30:24;6.38;;;5.00;;
23567;SDS011;11962;50.838;4.430;2022-07-25T02:33:31;7.72;;;5.07;;
23567;SDS011;11962;50.838;4.430;2022-07-25T02:47:51;8.00;;;5.00;;
23567;SDS011;11962;50.838;4.430;2022-07-25T02:59:38;6.40;;;4.63;;
23567;SDS011;11962;50.838;4.430;2022-07-25T03:02:13;10.20;;;4.90;;
23567;SDS011;11962;50.838;4.430;2022-07-25T03:04:45;6.22;;;4.38;;
23567;SDS011;11962;50.838;4.430;2022-07-25T03:07:11;6.57;;;4.88;;
23567;SDS011;11962;50.838;4.430;2022-07-25T03:09:44;10.52;;;4.95;;
23567;SDS011;11962;50.838;4.430;2022-07-25T03:12:57;6.35;;;4.70;;
23567;SDS011;11962;50.838;4.430;2022-07-25T03:18:47;12.45;;;5.28;;
23567;SDS011;11962;50.838;4.430;2022-07-25T03:25:12;5.00;;;4.50;;
23567;SDS011;11962;50.838;4.430;2022-07-25T03:27:44;8.43;;;5.10;;
23567;SDS011;11962;50.838;4.430;2022-07-25T03:30:14;9.70;;;5.03;;
23567;SDS011;11962;50.838;4.430;2022-07-25T03:32:48;10.00;;;5.18;;
23567;SDS011;11962;50.838;4.430;2022-07-25T03:35:29;5.97;;;4.43;;
23567;SDS011;11962;50.838;4.430;2022-07-25T03:38:11;7.20;;;4.72;;
23567;SDS011;11962;50.838;4.430;2022-07-25T03:41:05;11.05;;;5.22;;
23567;SDS011;11962;50.838;4.430;2022-07-25T03:43:42;6.55;;;4.60;;
23567;SDS011;11962;50.838;4.430;2022-07-25T03:46:11;6.05;;;4.70;;
23567;SDS011;11962;50.838;4.430;2022-07-25T03:55:35;6.55;;;5.20;;
23567;SDS011;11962;50.838;4.430;2022-07-25T03:58:16;7.45;;;5.03;;
23567;SDS011;11962;50.838;4.430;2022-07-25T04:00:45;6.07;;;5.03;;
23567;SDS011;11962;50.838;4.430;2022-07-25T04:03:18;6.82;;;4.75;;
23567;SDS011;11962;50.838;4.430;2022-07-25T04:11:40;10.15;;;5.80;;
23567;SDS011;11962;50.838;4.430;2022-07-25T04:14:14;10.10;;;5.20;;
23567;SDS011;11962;50.838;4.430;2022-07-25T04:16:59;13.65;;;5.18;;
23567;SDS011;11962;50.838;4.430;2022-07-25T04:19:27;8.50;;;4.90;;
23567;SDS011;11962;50.838;4.430;2022-07-25T04:21:56;9.15;;;4.70;;
23567;SDS011;11962;50.838;4.430;2022-07-25T04:24:36;9.48;;;4.18;;
23567;SDS011;11962;50.838;4.430;2022-07-25T04:27:11;5.70;;;3.80;;
23567;SDS011;11962;50.838;4.430;2022-07-25T04:29:45;4.88;;;3.70;;
23567;SDS011;11962;50.838;4.430;2022-07-25T04:32:19;7.15;;;3.30;;
23567;SDS011;11962;50.838;4.430;2022-07-25T04:34:47;4.88;;;3.55;;
23567;SDS011;11962;50.838;4.430;2022-07-25T04:37:39;6.90;;;3.42;;
23567;SDS011;11962;50.838;4.430;2022-07-25T04:40:12;5.70;;;3.05;;
23567;SDS011;11962;50.838;4.430;2022-07-25T04:42:38;6.05;;;3.33;;
23567;SDS011;11962;50.838;4.430;2022-07-25T04:45:09;4.50;;;2.65;;
23567;SDS011;11962;50.838;4.430;2022-07-25T04:47:35;7.60;;;2.90;;
23567;SDS011;11962;50.838;4.430;2022-07-25T04:50:01;5.65;;;3.15;;
23567;SDS011;11962;50.838;4.430;2022-07-25T04:52:26;5.47;;;2.60;;
23567;SDS011;11962;50.838;4.430;2022-07-25T04:54:52;4.15;;;2.90;;
23567;SDS011;11962;50.838;4.430;2022-07-25T04:57:18;6.60;;;2.75;;
23567;SDS011;11962;50.838;4.430;2022-07-25T04:59:46;3.83;;;2.97;;
23567;SDS011;11962;50.838;4.430;2022-07-25T05:02:14;4.78;;;2.78;;
23567;SDS011;11962;50.838;4.430;2022-07-25T05:04:49;5.60;;;3.30;;
23567;SDS011;11962;50.838;4.430;2022-07-25T05:07:49;5.82;;;2.75;;
23567;SDS011;11962;50.838;4.430;2022-07-25T05:11:11;5.65;;;2.78;;
23567;SDS011;11962;50.838;4.430;2022-07-25T05:13:47;4.90;;;2.53;;
23567;SDS011;11962;50.838;4.430;2022-07-25T05:16:16;8.80;;;2.35;;
23567;SDS011;11962;50.838;4.430;2022-07-25T05:18:42;8.50;;;2.85;;
23567;SDS011;11962;50.838;4.430;2022-07-25T05:21:16;5.88;;;2.47;;
23567;SDS011;11962;50.838;4.430;2022-07-25T05:23:44;6.30;;;2.17;;
23567;SDS011;11962;50.838;4.430;2022-07-25T05:29:48;6.07;;;2.05;;
23567;SDS011;11962;50.838;4.430;2022-07-25T05:32:29;10.27;;;2.60;;
23567;SDS011;11962;50.838;4.430;2022-07-25T05:34:57;6.25;;;2.38;;
23567;SDS011;11962;50.838;4.430;2022-07-25T05:37:55;7.43;;;2.40;;
23567;SDS011;11962;50.838;4.430;2022-07-25T05:41:02;8.93;;;2.33;;
23567;SDS011;11962;50.838;4.430;2022-07-25T06:28:19;5.55;;;1.90;;
23567;SDS011;11962;50.838;4.430;2022-07-25T06:30:50;5.95;;;1.85;;
23567;SDS011;11962;50.838;4.430;2022-07-25T06:33:16;6.68;;;1.88;;
23567;SDS011;11962;50.838;4.430;2022-07-25T06:35:42;4.65;;;2.10;;
23567;SDS011;11962;50.838;4.430;2022-07-25T06:38:07;3.63;;;1.88;;
23567;SDS011;11962;50.838;4.430;2022-07-25T06:40:33;4.55;;;2.00;;
23567;SDS011;11962;50.838;4.430;2022-07-25T06:46:49;6.95;;;1.60;;
23567;SDS011;11962;50.838;4.430;2022-07-25T06:49:47;3.65;;;1.60;;
23567;SDS011;11962;50.838;4.430;2022-07-25T07:08:35;3.65;;;1.42;;
23567;SDS011;11962;50.838;4.430;2022-07-25T07:14:19;6.88;;;1.60;;
23567;SDS011;11962;50.838;4.430;2022-07-25T07:31:40;7.90;;;1.70;;
23567;SDS011;11962;50.838;4.430;2022-07-25T07:37:10;3.03;;;1.20;;
23567;SDS011;11962;50.838;4.430;2022-07-25T07:43:09;7.63;;;1.45;;
23567;SDS011;11962;50.838;4.430;2022-07-25T07:45:50;2.75;;;0.98;;
23567;SDS011;11962;50.838;4.430;2022-07-25T07:52:11;2.53;;;1.00;;
23567;SDS011;11962;50.838;4.430;2022-07-25T08:12:00;2.45;;;1.08;;
23567;SDS011;11962;50.838;4.430;2022-07-25T08:14:26;5.43;;;1.20;;
23567;SDS011;11962;50.838;4.430;2022-07-25T08:16:58;7.73;;;1.50;;
23567;SDS011;11962;50.838;4.430;2022-07-25T08:19:24;6.10;;;1.05;;
23567;SDS011;11962;50.838;4.430;2022-07-25T08:22:44;2.35;;;0.80;;
23567;SDS011;11962;50.838;4.430;2022-07-25T08:25:15;3.35;;;1.13;;
23567;SDS011;11962;50.838;4.430;2022-07-25T08:27:48;4.65;;;1.10;;
23567;SDS011;11962;50.838;4.430;2022-07-25T08:54:36;3.42;;;1.00;;
23567;SDS011;11962;50.838;4.430;2022-07-25T09:01:04;0.98;;;0.73;;
23567;SDS011;11962;50.838;4.430;2022-07-25T09:23:48;4.22;;;1.30;;
23567;SDS011;11962;50.838;4.430;2022-07-25T09:27:07;2.67;;;1.20;;
23567;SDS011;11962;50.838;4.430;2022-07-25T09:29:41;3.05;;;0.93;;
23567;SDS011;11962;50.838;4.430;2022-07-25T09:32:17;2.25;;;1.00;;
23567;SDS011;11962;50.838;4.430;2022-07-25T09:34:45;2.28;;;0.90;;
23567;SDS011;11962;50.838;4.430;2022-07-25T09:37:14;3.15;;;1.05;;
23567;SDS011;11962;50.838;4.430;2022-07-25T09:50:14;4.82;;;1.25;;
23567;SDS011;11962;50.838;4.430;2022-07-25T10:07:32;2.53;;;1.33;;
23567;SDS011;11962;50.838;4.430;2022-07-25T10:38:56;3.85;;;1.60;;
23567;SDS011;11962;50.838;4.430;2022-07-25T10:44:47;3.10;;;1.60;;
23567;SDS011;11962;50.838;4.430;2022-07-25T10:47:39;6.65;;;1.90;;
23567;SDS011;11962;50.838;4.430;2022-07-25T10:50:49;6.95;;;1.95;;
23567;SDS011;11962;50.838;4.430;2022-07-25T10:54:10;4.28;;;1.55;;
23567;SDS011;11962;50.838;4.430;2022-07-25T10:57:40;5.55;;;1.80;;
23567;SDS011;11962;50.838;4.430;2022-07-25T11:04:15;4.20;;;1.67;;
23567;SDS011;11962;50.838;4.430;2022-07-25T11:07:22;5.60;;;1.77;;
23567;SDS011;11962;50.838;4.430;2022-07-25T11:10:05;6.35;;;1.65;;
23567;SDS011;11962;50.838;4.430;2022-07-25T11:25:20;7.18;;;1.90;;
23567;SDS011;11962;50.838;4.430;2022-07-25T11:34:21;5.18;;;1.50;;
23567;SDS011;11962;50.838;4.430;2022-07-25T11:37:08;10.43;;;2.13;;
23567;SDS011;11962;50.838;4.430;2022-07-25T12:04:20;8.98;;;1.92;;
23567;SDS011;11962;50.838;4.430;2022-07-25T12:27:58;4.50;;;1.33;;
23567;SDS011;11962;50.838;4.430;2022-07-25T12:30:25;8.00;;;1.88;;
23567;SDS011;11962;50.838;4.430;2022-07-25T12:33:05;5.22;;;1.95;;
23567;SDS011;11962;50.838;4.430;2022-07-25T12:36:28;6.43;;;1.80;;
23567;SDS011;11962;50.838;4.430;2022-07-25T12:39:12;5.10;;;1.70;;
23567;SDS011;11962;50.838;4.430;2022-07-25T12:46:06;5.93;;;1.70;;
23567;SDS011;11962;50.838;4.430;2022-07-25T12:48:35;6.32;;;2.05;;
23567;SDS011;11962;50.838;4.430;2022-07-25T12:51:20;5.00;;;2.03;;
23567;SDS011;11962;50.838;4.430;2022-07-25T12:54:16;4.72;;;2.03;;
23567;SDS011;11962;50.838;4.430;2022-07-25T12:57:08;7.28;;;2.08;;
23567;SDS011;11962;50.838;4.430;2022-07-25T13:03:42;6.28;;;1.92;;
23567;SDS011;11962;50.838;4.430;2022-07-25T13:06:37;5.75;;;1.63;;
23567;SDS011;11962;50.838;4.430;2022-07-25T13:12:18;7.05;;;2.10;;
23567;SDS011;11962;50.838;4.430;2022-07-25T13:18:27;4.30;;;1.58;;
23567;SDS011;11962;50.838;4.430;2022-07-25T13:37:36;6.18;;;1.38;;
23567;SDS011;11962;50.838;4.430;2022-07-25T13:55:56;4.03;;;1.20;;
23567;SDS011;11962;50.838;4.430;2022-07-25T13:58:34;8.02;;;1.40;;
23567;SDS011;11962;50.838;4.430;2022-07-25T14:01:00;4.72;;;1.38;;
23567;SDS011;11962;50.838;4.430;2022-07-25T14:03:31;9.23;;;1.10;;
23567;SDS011;11962;50.838;4.430;2022-07-25T14:05:57;9.70;;;1.33;;
23567;SDS011;11962;50.838;4.430;2022-07-25T14:08:22;7.70;;;1.20;;
23567;SDS011;11962;50.838;4.430;2022-07-25T14:10:50;6.68;;;1.10;;
23567;SDS011;11962;50.838;4.430;2022-07-25T14:13:16;5.25;;;0.90;;
23567;SDS011;11962;50.838;4.430;2022-07-25T14:15:42;3.97;;;1.25;;
23567;SDS011;11962;50.838;4.430;2022-07-25T14:25:29;4.80;;;1.30;;
23567;SDS011;11962;50.838;4.430;2022-07-25T14:34:25;9.50;;;1.17;;
23567;SDS011;11962;50.838;4.430;2022-07-25T14:54:03;3.10;;;0.93;;
23567;SDS011;11962;50.838;4.430;2022-07-25T15:00:07;2.17;;;0.82;;
23567;SDS011;11962;50.838;4.430;2022-07-25T15:03:11;6.25;;;1.08;;
23567;SDS011;11962;50.838;4.430;2022-07-25T15:08:42;2.90;;;0.82;;
23567;SDS011;11962;50.838;4.430;2022-07-25T15:11:08;4.00;;;0.90;;
23567;SDS011;11962;50.838;4.430;2022-07-25T15:17:17;3.78;;;0.80;;
23567;SDS011;11962;50.838;4.430;2022-07-25T15:19:45;3.53;;;0.63;;
23567;SDS011;11962;50.838;4.430;2022-07-25T15:22:29;3.85;;;0.63;;
23567;SDS011;11962;50.838;4.430;2022-07-25T15:25:09;2.80;;;0.80;;
23567;SDS011;11962;50.838;4.430;2022-07-25T15:28:08;2.08;;;0.50;;
23567;SDS011;11962;50.838;4.430;2022-07-25T15:31:02;4.22;;;0.75;;
23567;SDS011;11962;50.838;4.430;2022-07-25T15:34:07;2.42;;;0.70;;
23567;SDS011;11962;50.838;4.430;2022-07-25T15:36:33;3.90;;;0.75;;
23567;SDS011;11962;50.838;4.430;2022-07-25T15:39:23;2.42;;;0.50;;
23567;SDS011;11962;50.838;4.430;2022-07-25T15:42:18;3.83;;;0.80;;
23567;SDS011;11962;50.838;4.430;2022-07-25T15:47:52;4.93;;;0.63;;
23567;SDS011;11962;50.838;4.430;2022-07-25T15:59:21;2.72;;;0.50;;
23567;SDS011;11962;50.838;4.430;2022-07-25T16:04:36;5.18;;;0.60;;
23567;SDS011;11962;50.838;4.430;2022-07-25T16:10:03;3.80;;;0.70;;
23567;SDS011;11962;50.838;4.430;2022-07-25T16:12:29;6.80;;;0.82;;
23567;SDS011;11962;50.838;4.430;2022-07-25T16:18:13;4.38;;;1.00;;
23567;SDS011;11962;50.838;4.430;2022-07-25T16:23:29;3.60;;;1.02;;
23567;SDS011;11962;50.838;4.430;2022-07-25T16:26:11;5.18;;;1.00;;
23567;SDS011;11962;50.838;4.430;2022-07-25T16:32:02;5.43;;;0.80;;
23567;SDS011;11962;50.838;4.430;2022-07-25T16:34:43;4.47;;;1.10;;
23567;SDS011;11962;50.838;4.430;2022-07-25T16:37:12;5.07;;;0.90;;
23567;SDS011;11962;50.838;4.430;2022-07-25T16:39:44;8.98;;;1.00;;
23567;SDS011;11962;50.838;4.430;2022-07-25T16:42:13;3.88;;;1.10;;
23567;SDS011;11962;50.838;4.430;2022-07-25T16:48:12;3.72;;;0.80;;
23567;SDS011;11962;50.838;4.430;2022-07-25T16:51:12;2.50;;;0.80;;
23567;SDS011;11962;50.838;4.430;2022-07-25T16:57:22;3.80;;;0.75;;
23567;SDS011;11962;50.838;4.430;2022-07-25T17:00:10;3.80;;;0.80;;
23567;SDS011;11962;50.838;4.430;2022-07-25T17:03:11;3.58;;;0.50;;
23567;SDS011;11962;50.838;4.430;2022-07-25T17:05:37;3.75;;;0.70;;
23567;SDS011;11962;50.838;4.430;2022-07-25T17:08:18;5.43;;;0.65;;
23567;SDS011;11962;50.838;4.430;2022-07-25T17:11:08;2.85;;;0.82;;
23567;SDS011;11962;50.838;4.430;2022-07-25T17:14:04;2.90;;;0.47;;
23567;SDS011;11962;50.838;4.430;2022-07-25T17:16:53;3.50;;;0.50;;
23567;SDS011;11962;50.838;4.430;2022-07-25T17:19:33;4.38;;;0.90;;
23567;SDS011;11962;50.838;4.430;2022-07-25T17:22:06;4.82;;;0.68;;
23567;SDS011;11962;50.838;4.430;2022-07-25T17:25:03;4.45;;;1.00;;
23567;SDS011;11962;50.838;4.430;2022-07-25T17:28:17;4.45;;;0.80;;
23567;SDS011;11962;50.838;4.430;2022-07-25T17:30:55;2.60;;;0.88;;
23567;SDS011;11962;50.838;4.430;2022-07-25T17:33:29;3.28;;;0.45;;
23567;SDS011;11962;50.838;4.430;2022-07-25T17:36:17;4.50;;;0.68;;
23567;SDS011;11962;50.838;4.430;2022-07-25T17:38:46;1.88;;;0.50;;
23567;SDS011;11962;50.838;4.430;2022-07-25T17:41:27;3.55;;;0.75;;
23567;SDS011;11962;50.838;4.430;2022-07-25T17:48:11;2.63;;;0.90;;
23567;SDS011;11962;50.838;4.430;2022-07-25T17:51:17;4.65;;;1.00;;
23567;SDS011;11962;50.838;4.430;2022-07-25T17:53:57;4.80;;;0.85;;
23567;SDS011;11962;50.838;4.430;2022-07-25T18:02:21;5.78;;;1.20;;
23567;SDS011;11962;50.838;4.430;2022-07-25T18:04:47;9.02;;;0.85;;
23567;SDS011;11962;50.838;4.430;2022-07-25T18:07:13;4.13;;;1.05;;
23567;SDS011;11962;50.838;4.430;2022-07-25T18:09:48;2.72;;;0.70;;
23567;SDS011;11962;50.838;4.430;2022-07-25T18:12:13;4.82;;;0.93;;
23567;SDS011;11962;50.838;4.430;2022-07-25T18:14:39;2.65;;;0.75;;
23567;SDS011;11962;50.838;4.430;2022-07-25T18:42:50;4.10;;;1.02;;
23567;SDS011;11962;50.838;4.430;2022-07-25T18:45:55;4.00;;;1.20;;
23567;SDS011;11962;50.838;4.430;2022-07-25T18:48:28;4.70;;;0.82;;
23567;SDS011;11962;50.838;4.430;2022-07-25T19:00:34;5.80;;;1.02;;
23567;SDS011;11962;50.838;4.430;2022-07-25T19:17:21;4.97;;;0.77;;
23567;SDS011;11962;50.838;4.430;2022-07-25T19:20:19;5.43;;;1.00;;
23567;SDS011;11962;50.838;4.430;2022-07-25T19:26:56;4.40;;;1.15;;
23567;SDS011;11962;50.838;4.430;2022-07-25T19:29:55;5.60;;;1.00;;
23567;SDS011;11962;50.838;4.430;2022-07-25T19:36:12;4.82;;;0.73;;
23567;SDS011;11962;50.838;4.430;2022-07-25T19:45:35;3.20;;;0.88;;
23567;SDS011;11962;50.838;4.430;2022-07-25T19:48:04;4.18;;;0.68;;
23567;SDS011;11962;50.838;4.430;2022-07-25T19:50:56;3.22;;;0.80;;
23567;SDS011;11962;50.838;4.430;2022-07-25T19:53:27;2.42;;;0.80;;
23567;SDS011;11962;50.838;4.430;2022-07-25T19:55:55;3.80;;;0.90;;
23567;SDS011;11962;50.838;4.430;2022-07-25T19:58:31;3.42;;;0.80;;
23567;SDS011;11962;50.838;4.430;2022-07-25T20:04:31;5.03;;;1.20;;
23567;SDS011;11962;50.838;4.430;2022-07-25T20:07:14;3.28;;;0.95;;
23567;SDS011;11962;50.838;4.430;2022-07-25T20:10:10;3.50;;;0.80;;
23567;SDS011;11962;50.838;4.430;2022-07-25T20:12:53;6.05;;;1.30;;
23567;SDS011;11962;50.838;4.430;2022-07-25T20:15:24;4.80;;;1.10;;
23567;SDS011;11962;50.838;4.430;2022-07-25T20:17:55;3.70;;;1.08;;
23567;SDS011;11962;50.838;4.430;2022-07-25T20:20:32;7.60;;;1.20;;
23567;SDS011;11962;50.838;4.430;2022-07-25T20:22:58;3.88;;;0.95;;
23567;SDS011;11962;50.838;4.430;2022-07-25T20:25:23;7.53;;;1.52;;
23567;SDS011;11962;50.838;4.430;2022-07-25T20:27:50;4.07;;;1.05;;
23567;SDS011;11962;50.838;4.430;2022-07-25T20:30:19;5.35;;;1.15;;
23567;SDS011;11962;50.838;4.430;2022-07-25T20:32:52;4.40;;;0.90;;
23567;SDS011;11962;50.838;4.430;2022-07-25T20:36:10;7.07;;;1.23;;
23567;SDS011;11962;50.838;4.430;2022-07-25T20:39:12;2.72;;;0.90;;
23567;SDS011;11962;50.838;4.430;2022-07-25T20:45:43;5.70;;;1.00;;
23567;SDS011;11962;50.838;4.430;2022-07-25T20:51:26;6.93;;;1.30;;
23567;SDS011;11962;50.838;4.430;2022-07-25T20:54:11;8.10;;;1.20;;
23567;SDS011;11962;50.838;4.430;2022-07-25T20:59:58;10.07;;;1.10;;
23567;SDS011;11962;50.838;4.430;2022-07-25T21:02:24;6.47;;;1.20;;
23567;SDS011;11962;50.838;4.430;2022-07-25T21:04:54;4.28;;;1.40;;
23567;SDS011;11962;50.838;4.430;2022-07-25T21:07:34;4.95;;;1.15;;
23567;SDS011;11962;50.838;4.430;2022-07-25T21:10:04;8.00;;;1.40;;
23567;SDS011;11962;50.838;4.430;2022-07-25T21:12:42;4.28;;;1.30;;
23567;SDS011;11962;50.838;4.430;2022-07-25T21:15:15;4.63;;;1.30;;
23567;SDS011;11962;50.838;4.430;2022-07-25T21:17:48;4.88;;;1.13;;
23567;SDS011;11962;50.838;4.430;2022-07-25T21:20:27;2.95;;;1.02;;
23567;SDS011;11962;50.838;4.430;2022-07-25T21:23:42;9.40;;;1.58;;
23567;SDS011;11962;50.838;4.430;2022-07-25T21:42:57;10.13;;;1.88;;
23567;SDS011;11962;50.838;4.430;2022-07-25T21:45:30;5.57;;;1.35;;
23567;SDS011;11962;50.838;4.430;2022-07-25T21:48:24;9.68;;;1.42;;
23567;SDS011;11962;50.838;4.430;2022-07-25T21:51:43;7.47;;;1.50;;
23567;SDS011;11962;50.838;4.430;2022-07-25T21:54:32;4.40;;;1.38;;
23567;SDS011;11962;50.838;4.430;2022-07-25T21:57:38;6.20;;;1.35;;
23567;SDS011;11962;50.838;4.430;2022-07-25T22:03:38;5.35;;;1.23;;
23567;SDS011;11962;50.838;4.430;2022-07-25T22:06:22;9.65;;;1.52;;
23567;SDS011;11962;50.838;4.430;2022-07-25T22:09:34;3.45;;;1.58;;
23567;SDS011;11962;50.838;4.430;2022-07-25T22:12:08;4.68;;;1.20;;
23567;SDS011;11962;50.838;4.430;2022-07-25T22:32:22;9.10;;;1.70;;
23567;SDS011;11962;50.838;4.430;2022-07-25T22:35:32;4.45;;;1.25;;
23567;SDS011;11962;50.838;4.430;2022-07-25T22:38:56;8.03;;;2.07;;
23567;SDS011;11962;50.838;4.430;2022-07-25T22:41:36;9.80;;;1.50;;
23567;SDS011;11962;50.838;4.430;2022-07-25T22:44:33;3.97;;;1.38;;
23567;SDS011;11962;50.838;4.430;2022-07-25T22:46:59;6.65;;;1.40;;
23567;SDS011;11962;50.838;4.430;2022-07-25T22:49:29;4.80;;;1.52;;
23567;SDS011;11962;50.838;4.430;2022-07-25T22:52:02;6.65;;;1.50;;
23567;SDS011;11962;50.838;4.430;2022-07-25T22:54:28;7.30;;;1.70;;
23567;SDS011;11962;50.838;4.430;2022-07-25T22:56:57;9.43;;;1.60;;
23567;SDS011;11962;50.838;4.430;2022-07-25T22:59:40;9.88;;;1.40;;
23567;SDS011;11962;50.838;4.430;2022-07-25T23:02:06;9.07;;;2.05;;
23567;SDS011;11962;50.838;4.430;2022-07-25T23:05:00;7.57;;;1.83;;
23567;SDS011;11962;50.838;4.430;2022-07-25T23:08:14;10.35;;;1.60;;
23567;SDS011;11962;50.838;4.430;2022-07-25T23:10:56;6.25;;;1.60;;
23567;SDS011;11962;50.838;4.430;2022-07-25T23:13:22;8.43;;;1.80;;
23567;SDS011;11962;50.838;4.430;2022-07-25T23:15:47;12.77;;;2.40;;
23567;SDS011;11962;50.838;4.430;2022-07-25T23:21:22;8.45;;;1.65;;
23567;SDS011;11962;50.838;4.430;2022-07-25T23:23:48;8.70;;;2.00;;
23567;SDS011;11962;50.838;4.430;2022-07-25T23:26:14;6.53;;;1.77;;
23567;SDS011;11962;50.838;4.430;2022-07-25T23:28:39;7.93;;;2.25;;
23567;SDS011;11962;50.838;4.430;2022-07-25T23:31:35;8.10;;;2.03;;
23567;SDS011;11962;50.838;4.430;2022-07-25T23:34:55;8.45;;;1.50;;
23567;SDS011;11962;50.838;4.430;2022-07-25T23:45:13;9.05;;;1.73;;
23567;SDS011;11962;50.838;4.430;2022-07-25T23:47:54;10.43;;;2.42;;
23567;SDS011;11962;50.838;4.430;2022-07-25T23:53:39;9.02;;;2.00;;
23567;SDS011;11962;50.838;4.430;2022-07-25T23:56:52;8.93;;;2.35;;
